createdAt,value
2023-04-29T00:02:13.725Z,63.46
2023-04-29T00:05:19.413Z,63.34
2023-04-29T00:08:23.027Z,64.64
2023-04-29T00:11:25.842Z,63.47
2023-04-29T00:14:28.760Z,61.33
2023-04-29T00:17:31.566Z,63.90
2023-04-29T00:20:34.485Z,64.49
2023-04-29T00:23:37.377Z,66.51
2023-04-29T00:26:41.445Z,68.07
2023-04-29T00:29:44.700Z,66.62
2023-04-29T00:32:47.913Z,65.28
2023-04-29T00:35:51.032Z,66.18
2023-04-29T00:38:53.832Z,66.63
2023-04-29T00:41:57.074Z,66.72
2023-04-29T00:45:00.171Z,67.45
2023-04-29T00:48:03.375Z,67.33
2023-04-29T00:51:07.817Z,66.48
2023-04-29T00:54:11.852Z,67.12
2023-04-29T00:57:15.417Z,66.70
2023-04-29T01:00:19.530Z,65.80
2023-04-29T01:03:23.093Z,66.18
2023-04-29T01:06:26.202Z,66.05
2023-04-29T01:09:39.369Z,66.30
2023-04-29T01:12:47.305Z,66.35
2023-04-29T01:15:56.054Z,64.92
2023-04-29T01:19:02.892Z,65.49
2023-04-29T01:22:09.765Z,65.15
2023-04-29T01:25:13.132Z,65.20
2023-04-29T01:29:19.143Z,65.03
2023-04-29T01:32:43.100Z,65.21
2023-04-29T01:36:16.800Z,64.86
2023-04-29T01:39:41.985Z,66.27
2023-04-29T01:42:59.117Z,66.89
2023-04-29T01:46:05.728Z,67.11
2023-04-29T01:49:09.328Z,67.19
2023-04-29T01:52:13.451Z,66.86
2023-04-29T01:55:18.857Z,67.08
2023-04-29T01:58:44.739Z,66.28
2023-04-29T02:02:07.630Z,66.83
2023-04-29T02:05:13.975Z,67.15
2023-04-29T02:08:21.329Z,67.10
2023-04-29T02:11:24.504Z,67.90
2023-04-29T02:14:31.818Z,68.10
2023-04-29T02:17:34.838Z,69.37
2023-04-29T02:20:37.786Z,69.70
2023-04-29T02:23:42.791Z,70.07
2023-04-29T02:26:54.542Z,70.53
2023-04-29T02:29:57.349Z,70.70
2023-04-29T02:33:01.244Z,71.69
2023-04-29T02:36:04.400Z,71.83
2023-04-29T02:39:07.734Z,71.80
2023-04-29T02:42:10.722Z,72.40
2023-04-29T02:45:13.504Z,72.68
2023-04-29T02:48:16.668Z,72.67
2023-04-29T02:51:20.094Z,72.78
2023-04-29T02:54:23.372Z,72.72
2023-04-29T02:57:26.317Z,72.86
2023-04-29T03:00:29.192Z,72.32
2023-04-29T03:03:32.472Z,72.60
2023-04-29T03:06:35.444Z,71.64
2023-04-29T03:09:38.604Z,71.62
2023-04-29T03:12:41.402Z,71.83
2023-04-29T03:15:44.462Z,71.14
2023-04-29T03:18:47.210Z,70.82
2023-04-29T03:21:52.195Z,70.30
2023-04-29T03:24:57.266Z,70.86
2023-04-29T03:28:00.092Z,71.52
2023-04-29T03:31:03.289Z,70.47
2023-04-29T03:34:06.716Z,70.29
2023-04-29T03:37:13.163Z,69.68
2023-04-29T03:40:21.050Z,69.82
2023-04-29T03:43:24.967Z,69.76
2023-04-29T03:46:28.220Z,69.05
2023-04-29T03:49:31.187Z,70.50
2023-04-29T03:52:36.670Z,70.48
2023-04-29T03:55:45.722Z,70.99
2023-04-29T03:58:49.181Z,71.56
2023-04-29T04:01:54.600Z,71.31
2023-04-29T04:04:59.151Z,72.20
2023-04-29T04:08:02.173Z,72.58
2023-04-29T04:11:34.285Z,72.52
2023-04-29T04:14:39.187Z,73.01
2023-04-29T04:17:42.063Z,74.48
2023-04-29T04:20:45.011Z,75.09
2023-04-29T04:23:48.037Z,74.62
2023-04-29T04:26:56.045Z,74.73
2023-04-29T04:30:08.281Z,74.28
2023-04-29T04:33:11.120Z,73.96
2023-04-29T04:36:15.710Z,74.17
2023-04-29T04:39:19.169Z,75.72
2023-04-29T04:42:23.636Z,74.30
2023-04-29T04:45:31.429Z,74.55
2023-04-29T04:48:35.007Z,73.41
2023-04-29T04:51:47.502Z,72.87
2023-04-29T04:54:50.480Z,72.06
2023-04-29T04:57:58.841Z,70.07
2023-04-29T05:01:02.842Z,69.61
2023-04-29T05:04:06.147Z,66.47
2023-04-29T05:07:09.261Z,68.00
2023-04-29T05:10:33.472Z,70.48
2023-04-29T05:13:38.086Z,72.08
2023-04-29T05:16:41.015Z,70.61
2023-04-29T05:19:44.482Z,67.41
2023-04-29T05:22:47.993Z,65.26
2023-04-29T05:25:51.378Z,63.09
2023-04-29T05:28:55.530Z,60.30
2023-04-29T05:31:59.063Z,58.92
2023-04-29T05:35:02.723Z,56.07
2023-04-29T05:38:06.305Z,55.96
2023-04-29T05:41:14.368Z,54.05
2023-04-29T05:44:50.591Z,52.62
2023-04-29T05:47:53.343Z,52.14
2023-04-29T05:50:56.453Z,52.66
2023-04-29T05:54:00.514Z,51.78
2023-04-29T05:57:05.596Z,51.91
2023-04-29T06:00:09.046Z,50.46
2023-04-29T06:03:17.176Z,50.96
2023-04-29T06:06:20.650Z,48.33
2023-04-29T06:09:37.607Z,47.70
2023-04-29T06:12:40.513Z,49.44
2023-04-29T06:15:43.346Z,49.22
2023-04-29T06:18:46.133Z,49.15
2023-04-29T06:21:50.668Z,46.85
2023-04-29T06:24:53.670Z,50.14
2023-04-29T06:28:04.568Z,50.24
2023-04-29T06:31:08.440Z,49.97
2023-04-29T06:34:13.303Z,50.40
2023-04-29T06:37:40.513Z,47.51
2023-04-29T06:40:49.548Z,45.89
2023-04-29T06:44:22.004Z,43.61
2023-04-29T06:47:28.285Z,43.53
2023-04-29T06:50:52.714Z,43.72
2023-04-29T06:53:55.824Z,42.60
2023-04-29T06:56:58.644Z,38.89
2023-04-29T07:00:01.470Z,37.21
2023-04-29T07:03:04.531Z,35.54
2023-04-29T07:06:07.789Z,34.25
2023-04-29T07:09:10.715Z,30.89
2023-04-29T07:12:13.709Z,29.04
2023-04-29T07:15:16.575Z,29.25
2023-04-29T07:18:19.578Z,32.87
2023-04-29T07:21:22.457Z,31.34
2023-04-29T07:24:25.535Z,29.70
2023-04-29T07:27:28.774Z,28.63
2023-04-29T07:30:31.654Z,28.20
2023-04-29T07:33:35.786Z,26.54
2023-04-29T07:36:38.756Z,28.04
2023-04-29T07:39:42.843Z,27.52
2023-04-29T07:42:46.766Z,26.73
2023-04-29T07:45:49.678Z,27.80
2023-04-29T07:48:53.260Z,26.72
2023-04-29T07:51:56.123Z,27.96
2023-04-29T07:54:59.100Z,27.63
2023-04-29T07:58:01.929Z,26.11
2023-04-29T08:01:12.488Z,25.17
2023-04-29T08:04:16.569Z,23.92
2023-04-29T08:07:25.824Z,23.44
2023-04-29T08:10:29.372Z,25.59
2023-04-29T08:13:32.311Z,24.69
2023-04-29T08:16:35.363Z,23.96
2023-04-29T08:19:38.554Z,25.26
2023-04-29T08:22:41.586Z,24.72
2023-04-29T08:25:44.439Z,26.08
2023-04-29T08:28:47.384Z,27.19
2023-04-29T08:31:50.890Z,26.68
2023-04-29T08:34:53.944Z,28.21
2023-04-29T08:37:56.827Z,27.41
2023-04-29T08:40:59.666Z,27.88
2023-04-29T08:44:03.670Z,27.82
2023-04-29T08:47:07.411Z,26.78
2023-04-29T08:50:10.374Z,26.51
2023-04-29T08:53:14.730Z,26.28
2023-04-29T08:56:20.814Z,25.90
2023-04-29T08:59:24.302Z,30.01
2023-04-29T09:02:27.798Z,31.27
2023-04-29T09:05:31.974Z,30.45
2023-04-29T09:08:34.961Z,31.61
2023-04-29T09:11:42.410Z,31.99
2023-04-29T09:14:45.388Z,31.99
2023-04-29T09:17:49.389Z,30.49
2023-04-29T09:20:52.129Z,27.91
2023-04-29T09:23:56.419Z,27.35
2023-04-29T09:27:00.430Z,28.60
2023-04-29T09:30:03.426Z,28.86
2023-04-29T09:33:10.025Z,29.16
2023-04-29T09:36:12.954Z,26.96
2023-04-29T09:39:19.509Z,26.42
2023-04-29T09:42:25.180Z,24.91
2023-04-29T09:45:38.546Z,23.65
2023-04-29T09:49:26.416Z,22.06
2023-04-29T09:52:42.550Z,21.01
2023-04-29T09:55:54.404Z,21.50
2023-04-29T09:59:47.861Z,20.86
2023-04-29T10:02:51.884Z,21.06
2023-04-29T10:05:55.578Z,19.95
2023-04-29T10:08:58.728Z,19.38
2023-04-29T10:12:02.672Z,19.94
2023-04-29T10:15:44.228Z,20.44
2023-04-29T10:18:54.431Z,18.85
2023-04-29T10:22:00.852Z,18.13
2023-04-29T10:25:07.816Z,18.52
2023-04-29T10:28:17.062Z,17.95
2023-04-29T10:31:20.532Z,18.62
2023-04-29T10:34:24.632Z,19.41
2023-04-29T10:37:28.020Z,18.37
2023-04-29T10:40:54.401Z,18.38
2023-04-29T10:43:59.829Z,17.91
2023-04-29T10:47:21.687Z,17.72
2023-04-29T10:50:28.065Z,16.29
2023-04-29T10:53:31.002Z,16.27
2023-04-29T10:56:51.340Z,16.04
2023-04-29T10:59:54.183Z,16.51
2023-04-29T11:03:02.364Z,17.51
2023-04-29T11:06:11.754Z,16.81
2023-04-29T11:09:37.400Z,18.45
2023-04-29T11:12:40.629Z,18.41
2023-04-29T11:15:43.673Z,17.17
2023-04-29T11:19:05.199Z,16.91
2023-04-29T11:22:15.254Z,18.25
2023-04-29T11:25:19.060Z,20.06
2023-04-29T11:28:24.188Z,17.75
2023-04-29T11:31:30.817Z,17.43
2023-04-29T11:34:34.308Z,16.93
2023-04-29T11:37:37.390Z,17.92
2023-04-29T11:40:49.431Z,16.85
2023-04-29T11:43:57.785Z,17.76
2023-04-29T11:47:04.698Z,17.54
2023-04-29T11:50:10.453Z,18.52
2023-04-29T11:53:13.641Z,18.14
2023-04-29T11:56:16.604Z,18.34
2023-04-29T11:59:20.046Z,17.05
2023-04-29T12:02:24.118Z,16.87
2023-04-29T12:05:27.604Z,16.52
2023-04-29T12:08:31.264Z,16.25
2023-04-29T12:11:34.401Z,16.05
2023-04-29T12:14:38.421Z,18.92
2023-04-29T12:17:42.670Z,20.46
2023-04-29T12:20:48.303Z,19.20
2023-04-29T12:23:51.783Z,18.72
2023-04-29T12:26:56.260Z,18.91
2023-04-29T12:29:59.116Z,18.79
2023-04-29T12:33:02.850Z,19.74
2023-04-29T12:36:17.809Z,20.30
2023-04-29T12:39:21.387Z,24.47
2023-04-29T12:42:24.197Z,24.84
2023-04-29T12:45:34.596Z,25.24
2023-04-29T12:48:39.315Z,25.01
2023-04-29T12:51:42.709Z,27.16
2023-04-29T12:54:45.998Z,30.00
2023-04-29T12:57:48.801Z,29.27
2023-04-29T13:00:51.741Z,29.26
2023-04-29T13:03:54.908Z,31.07
2023-04-29T13:07:01.077Z,30.20
2023-04-29T13:10:06.509Z,29.69
2023-04-29T13:13:12.069Z,29.69
2023-04-29T13:16:14.948Z,31.32
2023-04-29T13:19:28.219Z,28.92
2023-04-29T13:22:37.678Z,24.87
2023-04-29T13:25:40.979Z,27.24
2023-04-29T13:28:44.327Z,26.01
2023-04-29T13:31:47.342Z,27.54
2023-04-29T13:34:51.683Z,26.17
2023-04-29T13:37:54.633Z,24.81
2023-04-29T13:40:57.777Z,26.46
2023-04-29T13:44:02.006Z,28.33
2023-04-29T13:47:06.499Z,29.46
2023-04-29T13:50:47.173Z,29.64
2023-04-29T13:54:20.459Z,29.68
2023-04-29T13:57:40.115Z,30.16
2023-04-29T14:03:24.354Z,33.67
2023-04-29T14:06:28.510Z,33.57
2023-04-29T14:09:31.586Z,33.67
2023-04-29T14:12:34.998Z,33.80
2023-04-29T14:15:38.046Z,33.39
2023-04-29T14:18:41.187Z,32.99
2023-04-29T14:21:44.147Z,32.38
2023-04-29T14:24:47.139Z,32.83
2023-04-29T14:27:50.032Z,32.95
2023-04-29T14:30:52.917Z,33.74
2023-04-29T14:33:56.553Z,33.47
2023-04-29T14:36:59.341Z,33.40
2023-04-29T14:40:02.155Z,33.26
2023-04-29T14:43:05.315Z,33.61
2023-04-29T14:46:08.422Z,33.01
2023-04-29T14:49:11.278Z,33.13
2023-04-29T14:52:14.517Z,33.07
2023-04-29T14:55:17.512Z,33.48
2023-04-29T14:58:20.973Z,34.97
2023-04-29T15:01:23.867Z,36.02
2023-04-29T15:04:27.749Z,34.88
2023-04-29T15:07:31.883Z,36.06
2023-04-29T15:10:35.019Z,35.67
2023-04-29T15:13:37.932Z,37.18
2023-04-29T15:16:40.927Z,38.14
2023-04-29T15:19:43.764Z,39.74
2023-04-29T15:22:47.799Z,39.62
2023-04-29T15:25:50.799Z,39.35
2023-04-29T15:28:53.961Z,41.09
2023-04-29T15:31:56.772Z,41.48
2023-04-29T15:35:00.561Z,41.51
2023-04-29T15:38:03.413Z,42.21
2023-04-29T15:41:06.960Z,42.06
2023-04-29T15:44:09.701Z,42.20
2023-04-29T15:47:12.481Z,41.42
2023-04-29T15:50:15.639Z,42.29
2023-04-29T15:53:18.391Z,42.15
2023-04-29T15:56:21.157Z,41.67
2023-04-29T15:59:24.231Z,41.98
2023-04-29T16:02:27.144Z,42.73
2023-04-29T16:05:31.762Z,43.15
2023-04-29T16:08:34.568Z,42.90
2023-04-29T16:11:37.385Z,43.33
2023-04-29T16:14:40.434Z,43.56
2023-04-29T16:17:43.302Z,43.27
2023-04-29T16:20:46.116Z,43.40
2023-04-29T16:23:49.114Z,44.46
2023-04-29T16:26:51.964Z,44.38
2023-04-29T16:29:55.968Z,44.76
2023-04-29T16:32:58.931Z,44.29
2023-04-29T16:36:03.161Z,44.11
2023-04-29T16:39:06.399Z,44.78
2023-04-29T16:42:09.545Z,46.15
2023-04-29T16:45:13.250Z,46.92
2023-04-29T16:48:16.634Z,45.59
2023-04-29T16:51:19.396Z,45.73
2023-04-29T16:54:23.345Z,46.62
2023-04-29T16:57:26.707Z,47.17
2023-04-29T17:00:29.794Z,47.69
2023-04-29T17:03:32.923Z,48.42
2023-04-29T17:06:37.331Z,47.60
2023-04-29T17:09:40.822Z,47.75
2023-04-29T17:12:44.607Z,48.38
2023-04-29T17:15:47.975Z,48.53
2023-04-29T17:18:50.812Z,48.53
2023-04-29T17:21:53.663Z,49.21
2023-04-29T17:24:56.387Z,49.96
2023-04-29T17:27:59.773Z,50.36
2023-04-29T17:31:02.638Z,51.04
2023-04-29T17:34:16.705Z,51.65
2023-04-29T17:37:25.009Z,51.90
2023-04-29T17:40:28.082Z,52.56
2023-04-29T17:43:33.394Z,53.39
2023-04-29T17:46:37.021Z,54.62
2023-04-29T17:49:39.839Z,55.03
2023-04-29T17:52:43.016Z,55.22
2023-04-29T17:55:46.377Z,55.53
2023-04-29T17:58:49.184Z,56.45
2023-04-29T18:01:52.553Z,57.14
2023-04-29T18:04:56.178Z,58.54
2023-04-29T18:07:59.015Z,58.64
2023-04-29T18:11:02.506Z,59.22
2023-04-29T18:14:05.271Z,59.71
2023-04-29T18:17:08.598Z,60.56
2023-04-29T18:20:13.050Z,60.56
2023-04-29T18:23:15.984Z,61.20
2023-04-29T18:26:19.009Z,61.47
2023-04-29T18:29:21.818Z,62.04
2023-04-29T18:32:24.634Z,62.36
2023-04-29T18:35:28.547Z,63.11
2023-04-29T18:38:31.376Z,63.23
2023-04-29T18:41:34.142Z,64.44
2023-04-29T18:44:37.096Z,65.94
2023-04-29T18:47:39.914Z,65.85
2023-04-29T18:50:43.189Z,66.18
2023-04-29T18:53:46.268Z,66.12
2023-04-29T18:56:50.247Z,66.61
2023-04-29T18:59:54.610Z,67.12
2023-04-29T19:02:57.920Z,68.36
2023-04-29T19:06:01.227Z,68.64
2023-04-29T19:09:04.418Z,69.22
2023-04-29T19:12:08.660Z,69.87
2023-04-29T19:15:12.052Z,70.09
2023-04-29T19:18:14.894Z,70.73
2023-04-29T19:21:18.589Z,70.94
2023-04-29T19:24:21.525Z,71.43
2023-04-29T19:27:24.360Z,71.40
2023-04-29T19:30:27.445Z,71.96
2023-04-29T19:33:31.099Z,72.12
2023-04-29T19:36:34.416Z,72.21
2023-04-29T19:39:37.290Z,72.24
2023-04-29T19:42:40.988Z,72.30
2023-04-29T19:45:43.896Z,73.53
2023-04-29T19:48:46.871Z,74.19
2023-04-29T19:51:51.855Z,74.25
2023-04-29T19:54:57.738Z,74.53
2023-04-29T19:58:00.823Z,74.31
2023-04-29T20:01:03.880Z,74.32
2023-04-29T20:04:07.065Z,74.58
2023-04-29T20:07:10.063Z,75.08
2023-04-29T20:10:12.950Z,75.88
2023-04-29T20:13:16.291Z,76.47
2023-04-29T20:16:19.153Z,76.63
2023-04-29T20:19:22.201Z,77.02
2023-04-29T20:22:25.165Z,77.26
2023-04-29T20:25:28.655Z,77.42
2023-04-29T20:28:31.690Z,77.88
2023-04-29T20:31:35.161Z,78.37
2023-04-29T20:34:38.463Z,78.63
2023-04-29T20:37:59.037Z,78.65
2023-04-29T20:41:37.332Z,79.30
2023-04-29T20:44:40.112Z,79.39
2023-04-29T20:47:44.129Z,79.56
2023-04-29T20:50:50.919Z,79.92
2023-04-29T20:53:53.928Z,80.15
2023-04-29T20:56:56.857Z,80.36
2023-04-29T21:00:05.297Z,80.22
2023-04-29T21:03:10.938Z,80.66
2023-04-29T21:06:13.896Z,81.20
2023-04-29T21:09:17.920Z,81.84
2023-04-29T21:12:20.837Z,82.71
2023-04-29T21:15:27.069Z,83.10
2023-04-29T21:18:30.088Z,83.45
2023-04-29T21:21:32.949Z,84.12
2023-04-29T21:24:35.795Z,84.44
2023-04-29T21:27:38.760Z,84.33
2023-04-29T21:30:41.708Z,84.55
2023-04-29T21:33:44.715Z,85.20
2023-04-29T21:36:47.536Z,86.20
2023-04-29T21:39:50.975Z,87.03
2023-04-29T21:42:55.456Z,87.27
2023-04-29T21:45:58.347Z,87.91
2023-04-29T21:49:03.355Z,87.79
2023-04-29T21:52:06.249Z,87.95
2023-04-29T21:55:09.536Z,88.43
2023-04-29T21:58:12.365Z,88.78
2023-04-29T22:01:39.528Z,89.05
2023-04-29T22:04:42.808Z,89.19
2023-04-29T22:07:46.295Z,89.94
2023-04-29T22:10:49.207Z,88.64
2023-04-29T22:13:52.130Z,88.13
2023-04-29T22:16:55.059Z,88.14
2023-04-29T22:19:58.033Z,90.22
2023-04-29T22:23:01.062Z,90.50
2023-04-29T22:26:03.857Z,91.06
2023-04-29T22:29:06.765Z,91.34
2023-04-29T22:32:09.572Z,91.76
2023-04-29T22:35:12.548Z,92.14
2023-04-29T22:38:17.835Z,92.89
2023-04-29T22:41:21.938Z,93.17
2023-04-29T22:44:26.313Z,93.32
2023-04-29T22:47:29.328Z,93.79
2023-04-29T22:50:32.135Z,94.26
2023-04-29T22:53:34.936Z,94.33
2023-04-29T22:56:37.817Z,94.91
2023-04-29T22:59:40.739Z,95.92
2023-04-29T23:02:44.181Z,95.78
2023-04-29T23:05:47.119Z,96.21
2023-04-29T23:08:49.997Z,95.45
2023-04-29T23:11:53.426Z,95.37
2023-04-29T23:14:56.862Z,95.28
2023-04-29T23:17:59.921Z,95.22
2023-04-29T23:21:02.940Z,95.47
2023-04-29T23:24:05.950Z,94.83
2023-04-29T23:27:08.806Z,95.39
2023-04-29T23:30:11.732Z,94.95
2023-04-29T23:33:15.206Z,94.64
2023-04-29T23:36:18.172Z,95.14
2023-04-29T23:39:21.132Z,94.10
2023-04-29T23:42:23.943Z,94.07
2023-04-29T23:45:27.056Z,93.89
2023-04-29T23:48:29.802Z,94.31
2023-04-29T23:51:33.154Z,94.27
2023-04-29T23:54:36.317Z,94.66
2023-04-29T23:57:39.184Z,95.11
